Time;durP1;ratioP1;P1;durP2;ratioP2;P2;SDS_P1;SDS_P2;PMS_P1;PMS_P2;Temp;Humidity;BMP_temperature;BMP_pressure;BME280_temperature;BME280_humidity;BME280_pressure;Samples;Min_cycle;Max_cycle;Signal;HPM_P1;HPM_P2
2022/06/23 00:02:21;;;;;;;6.20;1.90;;;20.10;99.90;;;;;;5087379;28;20024;-65
2022/06/23 00:04:48;;;;;;;2.92;1.88;;;20.10;99.90;;;;;;5085903;28;20028;-65
2022/06/23 00:07:21;;;;;;;4.72;1.58;;;20.00;99.90;;;;;;5090287;28;20058;-65
2022/06/23 00:09:51;;;;;;;3.22;1.65;;;19.80;99.90;;;;;;5090297;28;20024;-65
2022/06/23 00:12:38;;;;;;;4.05;1.70;;;19.70;99.90;;;;;;5087046;28;20687;-65
2022/06/23 00:15:07;;;;;;;2.85;1.70;;;19.80;99.90;;;;;;5087380;28;20034;-65
2022/06/23 00:17:42;;;;;;;2.70;1.65;;;19.30;99.90;;;;;;5087011;28;20467;-65
2022/06/23 00:20:26;;;;;;;2.65;1.67;;;19.20;99.90;;;;;;5081666;28;20468;-66
2022/06/23 00:23:20;;;;;;;4.10;1.60;;;19.30;99.90;;;;;;5087601;28;20475;-65
2022/06/23 00:25:59;;;;;;;2.90;1.77;;;19.00;99.90;;;;;;5053699;28;20032;-65
2022/06/23 00:28:34;;;;;;;4.75;2.08;;;19.00;99.90;;;;;;5085191;28;20022;-65
2022/06/23 00:31:02;;;;;;;3.00;1.83;;;19.00;99.90;;;;;;5085984;28;20084;-65
2022/06/23 00:33:38;;;;;;;2.45;1.92;;;18.80;99.90;;;;;;5084449;28;20382;-65
2022/06/23 00:36:34;;;;;;;3.47;1.95;;;18.70;99.90;;;;;;5083061;28;20023;-66
2022/06/23 00:39:00;;;;;;;4.97;2.38;;;18.80;99.90;;;;;;5082592;28;20032;-66
2022/06/23 00:41:33;;;;;;;3.95;1.90;;;18.80;99.90;;;;;;5093578;28;20047;-65
2022/06/23 00:44:17;;;;;;;4.30;1.88;;;18.70;99.90;;;;;;5085667;28;20740;-65
2022/06/23 00:46:50;;;;;;;;;;;18.50;99.90;;;;;;5083964;28;20094;-65
2022/06/23 00:49:29;;;;;;;3.10;1.67;;;18.40;99.90;;;;;;5089743;28;19957;-65
2022/06/23 00:52:01;;;;;;;3.28;1.90;;;18.40;99.90;;;;;;5083466;28;20550;-65
2022/06/23 00:54:35;;;;;;;3.33;1.92;;;18.20;99.90;;;;;;5088415;28;20475;-65
2022/06/23 00:57:13;;;;;;;5.35;1.90;;;18.30;99.90;;;;;;5088688;28;20055;-65
2022/06/23 00:59:45;;;;;;;1.98;1.70;;;18.20;99.90;;;;;;5078350;28;20519;-65
2022/06/23 01:02:15;;;;;;;3.50;1.93;;;18.20;99.90;;;;;;5083968;28;20024;-65
2022/06/23 01:05:01;;;;;;;3.03;1.73;;;18.20;99.90;;;;;;5084984;28;20024;-65
2022/06/23 01:07:58;;;;;;;3.72;2.00;;;18.20;99.90;;;;;;5094191;28;20039;-65
2022/06/23 01:10:48;;;;;;;3.70;2.00;;;18.20;99.90;;;;;;5078611;28;20073;-65
2022/06/23 01:13:45;;;;;;;2.53;2.10;;;18.20;99.90;;;;;;5086407;28;20471;-66
2022/06/23 01:16:14;;;;;;;3.72;2.00;;;18.10;99.90;;;;;;5089669;28;20051;-65
2022/06/23 01:19:06;;;;;;;5.07;2.13;;;18.20;99.90;;;;;;5084468;28;20016;-65
2022/06/23 01:21:45;;;;;;;6.50;2.05;;;18.20;99.90;;;;;;5088384;28;20043;-65
2022/06/23 01:24:38;;;;;;;4.18;2.20;;;18.30;99.90;;;;;;5089122;28;20376;-65
2022/06/23 01:27:13;;;;;;;6.65;2.22;;;18.50;99.90;;;;;;5083824;28;20037;-65
2022/06/23 01:30:02;;;;;;;4.93;2.10;;;18.10;99.90;;;;;;5082942;28;20028;-65
2022/06/23 01:32:37;;;;;;;4.00;2.00;;;18.10;99.90;;;;;;5081719;28;20020;-65
2022/06/23 01:35:08;;;;;;;4.95;2.20;;;17.80;99.90;;;;;;5086025;28;20124;-65
2022/06/23 01:37:55;;;;;;;4.70;2.33;;;17.70;99.90;;;;;;5085680;28;20668;-65
2022/06/23 01:40:21;;;;;;;4.82;2.08;;;17.80;99.90;;;;;;5087621;28;20081;-65
2022/06/23 01:43:10;;;;;;;3.33;2.15;;;17.70;99.90;;;;;;5087400;28;20020;-65
2022/06/23 01:45:45;;;;;;;5.63;2.38;;;17.70;99.90;;;;;;5087948;28;20051;-65
2022/06/23 01:48:51;;;;;;;4.63;2.50;;;17.80;99.90;;;;;;5093313;28;20497;-65
2022/06/23 01:51:16;;;;;;;5.15;2.53;;;17.80;99.90;;;;;;5090045;28;20032;-65
2022/06/23 01:53:41;;;;;;;5.90;2.75;;;17.70;99.90;;;;;;5084725;28;20026;-65
2022/06/23 01:56:20;;;;;;;4.43;2.53;;;17.60;99.90;;;;;;5093645;28;20028;-65
2022/06/23 01:59:17;;;;;;;5.80;2.70;;;17.70;99.90;;;;;;5085648;28;20008;-65
2022/06/23 02:01:53;;;;;;;4.70;2.45;;;17.60;99.90;;;;;;5075987;28;20038;-65
2022/06/23 02:04:27;;;;;;;4.53;2.78;;;17.90;99.90;;;;;;5088172;28;20428;-65
2022/06/23 02:07:24;;;;;;;4.75;2.47;;;17.60;99.90;;;;;;5087605;28;20019;-65
2022/06/23 02:09:54;;;;;;;3.55;2.30;;;17.50;99.90;;;;;;5082023;28;20031;-66
2022/06/23 02:12:30;;;;;;;4.07;2.63;;;17.40;99.90;;;;;;5089092;28;20055;-65
2022/06/23 02:15:11;;;;;;;4.15;2.70;;;17.40;99.90;;;;;;5091718;28;20031;-65
2022/06/23 02:17:48;;;;;;;4.10;2.88;;;17.40;99.90;;;;;;5097977;28;20069;-65
2022/06/23 02:20:38;;;;;;;4.53;2.72;;;17.40;99.90;;;;;;5086023;28;20419;-65
2022/06/23 02:23:33;;;;;;;5.15;2.88;;;17.30;99.90;;;;;;5092163;28;20033;-66
2022/06/23 02:26:41;;;;;;;3.63;2.70;;;17.20;99.90;;;;;;5076256;28;20049;-65
2022/06/23 02:29:30;;;;;;;6.20;3.00;;;17.30;99.90;;;;;;5039772;28;20041;-66
2022/06/23 02:32:06;;;;;;;3.63;2.50;;;17.10;99.90;;;;;;5034732;28;20524;-65
2022/06/23 02:34:40;;;;;;;3.10;2.42;;;17.10;99.90;;;;;;5064125;28;20040;-66
2022/06/23 02:37:46;;;;;;;5.50;2.67;;;17.20;99.90;;;;;;5081955;28;20025;-65
2022/06/23 02:40:32;;;;;;;4.97;2.78;;;17.10;99.90;;;;;;5052513;28;20390;-65
2022/06/23 02:43:15;;;;;;;6.00;2.72;;;17.00;99.90;;;;;;5096097;28;20028;-65
2022/06/23 02:46:12;;;;;;;4.37;2.50;;;17.00;99.90;;;;;;5089989;28;20055;-65
2022/06/23 02:49:36;;;;;;;3.92;2.78;;;17.10;99.90;;;;;;5087834;28;20423;-65
2022/06/23 02:52:29;;;;;;;3.97;2.30;;;17.20;99.90;;;;;;5077512;28;20028;-65
2022/06/23 02:55:12;;;;;;;3.85;2.40;;;16.90;99.90;;;;;;5090641;28;20039;-65
2022/06/23 02:57:38;;;;;;;5.90;2.58;;;16.90;99.90;;;;;;5094378;28;20115;-65
2022/06/23 03:00:19;;;;;;;4.43;2.58;;;16.70;99.90;;;;;;5087796;28;20563;-65
2022/06/23 03:03:26;;;;;;;3.88;2.35;;;16.80;99.90;;;;;;5095233;28;20138;-65
2022/06/23 03:06:01;;;;;;;5.82;2.70;;;17.00;99.90;;;;;;5082088;28;20039;-65
2022/06/23 03:09:12;;;;;;;5.90;3.00;;;16.70;99.90;;;;;;5097434;28;20472;-65
2022/06/23 03:12:01;;;;;;;4.82;2.78;;;17.00;99.90;;;;;;5084109;28;20028;-65
2022/06/23 03:14:51;;;;;;;6.18;2.88;;;16.90;99.90;;;;;;5088271;28;20059;-65
2022/06/23 03:17:24;;;;;;;4.65;2.75;;;16.90;99.90;;;;;;5091533;28;20072;-65
2022/06/23 03:20:04;;;;;;;5.85;2.50;;;16.90;99.90;;;;;;5084927;28;20027;-65
2022/06/23 03:23:09;;;;;;;4.00;2.67;;;17.00;99.90;;;;;;5084411;28;20028;-65
2022/06/23 03:25:59;;;;;;;6.13;2.70;;;16.80;99.90;;;;;;5077904;28;20494;-65
2022/06/23 03:28:40;;;;;;;4.70;3.03;;;16.90;99.90;;;;;;5086944;28;20027;-65
2022/06/23 03:31:14;;;;;;;5.38;2.70;;;16.80;99.90;;;;;;5080134;28;20345;-65
2022/06/23 03:34:05;;;;;;;5.90;2.65;;;16.90;99.90;;;;;;5085619;28;20020;-65
2022/06/23 03:36:41;;;;;;;4.15;2.50;;;16.90;99.90;;;;;;5082412;28;20040;-65
2022/06/23 03:42:17;;;;;;;10.60;3.03;;;17.20;99.90;;;;;;5098238;28;20036;-65
2022/06/23 03:45:10;;;;;;;5.22;3.05;;;17.00;99.90;;;;;;5088254;28;20455;-65
2022/06/23 03:48:07;;;;;;;5.18;2.92;;;17.00;99.90;;;;;;5086605;28;20364;-65
2022/06/23 03:51:03;;;;;;;4.90;2.95;;;16.80;99.90;;;;;;5092307;28;20027;-65
2022/06/23 03:53:34;;;;;;;4.85;2.92;;;16.70;99.90;;;;;;5083505;28;20103;-65
2022/06/23 03:56:10;;;;;;;6.82;2.80;;;16.80;99.90;;;;;;5088026;28;20102;-65
2022/06/23 03:58:57;;;;;;;6.60;2.95;;;16.80;99.90;;;;;;5087204;28;20403;-65
2022/06/23 04:01:33;;;;;;;6.82;3.30;;;16.80;99.90;;;;;;5088673;28;20024;-65
2022/06/23 04:04:04;;;;;;;6.45;3.50;;;16.80;99.90;;;;;;5089684;28;20484;-65
2022/06/23 04:06:36;;;;;;;7.63;3.72;;;16.80;99.90;;;;;;5078467;28;20372;-65
2022/06/23 04:09:17;;;;;;;8.35;3.53;;;16.90;99.90;;;;;;5091884;28;20378;-65
2022/06/23 04:12:03;;;;;;;7.97;3.35;;;16.80;99.90;;;;;;5101367;27;20016;-65
2022/06/23 04:14:59;;;;;;;4.05;2.90;;;16.80;99.90;;;;;;5090422;28;20031;-65
2022/06/23 04:17:27;;;;;;;7.65;3.67;;;16.90;99.90;;;;;;5082629;28;20025;-65
2022/06/23 04:20:08;;;;;;;5.80;3.35;;;16.90;99.90;;;;;;5083712;28;20055;-65
2022/06/23 04:22:42;;;;;;;7.88;3.28;;;16.90;99.90;;;;;;5084331;28;20046;-65
2022/06/23 04:25:31;;;;;;;5.97;3.42;;;16.90;99.90;;;;;;5082694;28;20031;-65
2022/06/23 04:27:59;;;;;;;5.80;3.20;;;17.10;99.90;;;;;;5082042;28;20025;-65
2022/06/23 04:30:38;;;;;;;5.60;3.28;;;17.30;99.90;;;;;;5082444;28;20038;-65
2022/06/23 04:33:06;;;;;;;6.43;3.10;;;17.30;99.90;;;;;;5097467;28;20414;-65
2022/06/23 04:35:36;;;;;;;6.95;3.63;;;17.40;99.90;;;;;;5079719;28;20028;-65
2022/06/23 04:38:12;;;;;;;4.72;3.03;;;17.60;99.90;;;;;;5090544;28;20016;-65
2022/06/23 04:40:48;;;;;;;6.53;3.40;;;17.70;99.90;;;;;;5087712;28;20497;-65
2022/06/23 04:43:40;;;;;;;6.82;3.53;;;17.80;99.90;;;;;;5088318;28;20024;-66
2022/06/23 04:46:40;;;;;;;5.75;3.20;;;17.80;99.90;;;;;;5082011;28;20058;-66
2022/06/23 04:49:16;;;;;;;5.47;3.10;;;17.90;99.90;;;;;;5082830;28;20023;-66
2022/06/23 04:52:03;;;;;;;5.13;2.72;;;18.10;99.90;;;;;;5082678;28;20028;-66
2022/06/23 04:55:04;;;;;;;5.45;2.85;;;18.40;99.90;;;;;;5085638;28;20468;-66
2022/06/23 04:57:33;;;;;;;7.53;2.83;;;;;;;;;;5079601;28;20024;-66
2022/06/23 05:00:02;;;;;;;6.32;2.90;;;18.90;99.90;;;;;;5087894;28;20108;-66
2022/06/23 05:02:51;;;;;;;5.30;3.00;;;18.80;99.90;;;;;;5080295;28;20016;-66
2022/06/23 05:05:17;;;;;;;7.15;3.13;;;;;;;;;;5084442;28;20085;-67
2022/06/23 05:07:48;;;;;;;4.47;2.70;;;19.30;99.90;;;;;;5085080;28;20035;-66
2022/06/23 05:10:34;;;;;;;6.35;3.10;;;19.60;99.90;;;;;;5080906;28;20054;-66
2022/06/23 05:13:05;;;;;;;7.10;3.30;;;19.70;99.90;;;;;;5087143;28;20105;-67
2022/06/23 05:15:45;;;;;;;8.13;3.30;;;19.80;99.90;;;;;;5083977;28;20030;-67
2022/06/23 05:18:34;;;;;;;9.43;3.63;;;19.90;99.90;;;;;;5080573;28;20107;-67
2022/06/23 05:21:07;;;;;;;8.45;3.17;;;20.10;99.90;;;;;;5084950;28;20040;-66
2022/06/23 05:23:38;;;;;;;7.75;3.05;;;20.10;99.90;;;;;;5085304;28;20027;-66
2022/06/23 05:26:14;;;;;;;9.95;3.13;;;20.20;99.90;;;;;;5079641;28;20071;-66
2022/06/23 05:28:42;;;;;;;7.18;2.92;;;20.20;99.90;;;;;;5085139;28;20027;-66
2022/06/23 05:31:15;;;;;;;9.80;3.13;;;20.20;99.90;;;;;;5085477;28;20448;-66
2022/06/23 05:33:48;;;;;;;7.13;3.00;;;20.30;99.90;;;;;;5077454;28;20391;-66
2022/06/23 05:36:24;;;;;;;7.65;2.72;;;20.40;99.90;;;;;;5083814;28;20024;-67
2022/06/23 05:39:01;;;;;;;7.70;2.60;;;20.50;99.90;;;;;;5085524;28;20030;-68
2022/06/23 05:41:40;;;;;;;6.32;2.85;;;20.70;99.90;;;;;;5087838;28;20683;-68
2022/06/23 05:44:20;;;;;;;5.15;2.60;;;20.80;99.90;;;;;;5086269;28;20020;-69
2022/06/23 05:46:48;;;;;;;33.63;26.27;;;21.00;99.90;;;;;;5086672;28;20055;-66
2022/06/23 05:49:25;;;;;;;8.10;4.70;;;21.10;99.90;;;;;;5084465;28;20031;-66
2022/06/23 05:51:59;;;;;;;8.23;3.40;;;21.10;99.90;;;;;;5081414;28;20392;-66
2022/06/23 05:54:35;;;;;;;6.05;2.75;;;21.20;99.90;;;;;;5085988;28;20498;-66
2022/06/23 05:57:30;;;;;;;6.63;2.78;;;21.30;99.90;;;;;;5084037;28;20021;-66
2022/06/23 06:00:14;;;;;;;4.50;2.40;;;21.30;99.90;;;;;;5087730;28;20040;-66
2022/06/23 06:02:58;;;;;;;4.45;2.30;;;21.50;99.90;;;;;;5087441;28;20027;-66
2022/06/23 06:05:34;;;;;;;7.65;2.50;;;21.70;99.90;;;;;;5089800;28;20087;-66
2022/06/23 06:08:03;;;;;;;5.80;2.30;;;21.80;99.90;;;;;;5081976;28;20085;-66
2022/06/23 06:10:30;;;;;;;6.55;2.50;;;21.80;99.90;;;;;;5086026;28;20620;-68
2022/06/23 06:12:57;;;;;;;10.50;3.10;;;21.90;99.90;;;;;;5086490;28;20024;-67
2022/06/23 06:15:25;;;;;;;7.68;2.58;;;22.10;99.90;;;;;;5086664;28;20180;-68
2022/06/23 06:17:56;;;;;;;3.35;2.60;;;22.20;99.90;;;;;;5086524;28;20372;-67
2022/06/23 06:20:25;;;;;;;6.72;2.70;;;22.30;99.90;;;;;;5085014;28;20022;-67
2022/06/23 06:23:00;;;;;;;6.53;2.50;;;;;;;;;;5087462;28;20380;-67
2022/06/23 06:25:32;;;;;;;5.85;2.63;;;22.90;99.90;;;;;;5087887;28;20034;-68
2022/06/23 06:28:09;;;;;;;7.97;2.50;;;22.50;99.90;;;;;;5089442;28;20020;-67
2022/06/23 06:30:39;;;;;;;7.25;2.67;;;22.60;99.90;;;;;;5088033;28;20035;-68
2022/06/23 06:33:05;;;;;;;7.35;2.95;;;22.70;99.90;;;;;;5087757;28;20420;-68
2022/06/23 06:35:41;;;;;;;6.07;3.00;;;22.90;99.90;;;;;;5086968;28;20049;-67
2022/06/23 06:38:12;;;;;;;6.68;2.85;;;22.90;99.90;;;;;;5094696;28;20036;-68
2022/06/23 06:40:39;;;;;;;7.88;2.88;;;23.00;99.90;;;;;;5090522;28;20043;-67
2022/06/23 06:43:12;;;;;;;8.18;3.03;;;23.00;99.90;;;;;;5095135;28;20012;-68
2022/06/23 06:45:39;;;;;;;;;;;23.10;99.90;;;;;;5094532;28;20286;-67
2022/06/23 06:48:13;;;;;;;8.05;3.10;;;23.20;99.90;;;;;;5090554;28;19949;-68
2022/06/23 06:50:42;;;;;;;7.43;2.92;;;23.20;99.90;;;;;;5087312;28;20052;-68
2022/06/23 06:53:29;;;;;;;7.68;3.10;;;23.30;99.90;;;;;;5091417;28;20073;-68
2022/06/23 06:56:15;;;;;;;6.93;3.15;;;23.40;99.90;;;;;;5084740;28;20101;-68
2022/06/23 06:58:52;;;;;;;7.65;3.50;;;23.50;99.90;;;;;;5086203;28;20787;-68
2022/06/23 07:01:25;;;;;;;5.93;3.10;;;23.60;99.90;;;;;;5092612;28;20012;-68
2022/06/23 07:03:53;;;;;;;7.10;3.05;;;23.70;99.90;;;;;;5090495;28;20038;-68
2022/06/23 07:06:28;;;;;;;7.60;3.38;;;23.70;99.90;;;;;;5093935;28;20435;-68
2022/06/23 07:09:06;;;;;;;6.88;3.30;;;23.80;99.90;;;;;;5087218;28;20016;-68
2022/06/23 07:12:05;;;;;;;7.00;2.92;;;23.90;99.90;;;;;;5089332;28;20084;-67
2022/06/23 07:14:40;;;;;;;7.30;3.13;;;23.90;99.90;;;;;;5080545;28;20150;-68
2022/06/23 07:17:30;;;;;;;11.70;3.47;;;24.00;99.90;;;;;;5084660;28;20028;-68
2022/06/23 07:20:02;;;;;;;7.05;3.47;;;24.20;99.90;;;;;;5091045;28;20023;-68
2022/06/23 07:22:34;;;;;;;9.60;3.17;;;24.30;99.90;;;;;;5092927;28;20018;-68
2022/06/23 07:25:20;;;;;;;7.47;3.13;;;24.40;99.90;;;;;;5091382;28;20024;-67
2022/06/23 07:27:57;;;;;;;8.23;3.72;;;24.40;99.90;;;;;;5082413;28;20547;-68
2022/06/23 07:30:35;;;;;;;10.95;3.60;;;24.50;99.90;;;;;;5093902;28;20031;-68
2022/06/23 07:33:24;;;;;;;9.40;3.05;;;24.60;99.90;;;;;;5089793;28;20055;-68
2022/06/23 07:36:24;;;;;;;10.02;3.80;;;24.60;99.90;;;;;;5088036;28;20032;-68
2022/06/23 07:39:03;;;;;;;12.15;3.58;;;24.70;99.90;;;;;;5085920;28;20036;-69
2022/06/23 07:42:00;;;;;;;23.98;17.48;;;24.80;99.90;;;;;;5091896;28;20084;-65
2022/06/23 07:44:36;;;;;;;24.05;15.60;;;24.90;99.90;;;;;;5092020;28;20035;-67
2022/06/23 07:47:02;;;;;;;8.82;3.17;;;25.10;99.90;;;;;;5088371;28;20047;-68
2022/06/23 07:49:31;;;;;;;9.02;3.10;;;25.00;99.90;;;;;;5084192;28;20471;-67
2022/06/23 07:51:57;;;;;;;10.55;3.40;;;25.20;99.90;;;;;;5093686;28;20016;-68
2022/06/23 07:54:23;;;;;;;9.85;3.60;;;25.30;99.90;;;;;;5091093;28;20032;-68
2022/06/23 07:56:50;;;;;;;12.05;3.55;;;25.40;99.90;;;;;;5086875;28;20397;-68
2022/06/23 07:59:19;;;;;;;9.52;3.42;;;25.50;99.90;;;;;;5080108;28;20055;-68
2022/06/23 08:02:14;;;;;;;11.13;3.30;;;25.50;99.90;;;;;;5087194;28;20024;-68
2022/06/23 08:04:51;;;;;;;10.57;3.30;;;25.50;99.90;;;;;;5095277;28;20027;-68
2022/06/23 08:07:18;;;;;;;11.10;3.00;;;25.70;99.90;;;;;;5092681;28;20023;-68
2022/06/23 08:09:48;;;;;;;12.32;3.17;;;25.80;99.90;;;;;;5093273;28;20422;-67
2022/06/23 08:18:12;;;;;;;14.50;3.40;;;25.90;99.90;;;;;;5087748;28;20043;-68
2022/06/23 08:20:42;;;;;;;11.35;3.25;;;26.00;99.90;;;;;;5089362;28;20044;-67
2022/06/23 08:23:11;;;;;;;9.88;2.97;;;26.00;99.90;;;;;;5088020;28;20032;-67
2022/06/23 08:25:36;;;;;;;7.22;3.00;;;26.10;99.90;;;;;;5082182;28;20391;-67
2022/06/23 08:28:05;;;;;;;9.82;2.92;;;26.30;99.90;;;;;;5099660;28;20032;-67
2022/06/23 08:30:36;;;;;;;10.85;3.15;;;26.40;99.90;;;;;;5077885;28;20746;-69
2022/06/23 08:33:03;;;;;;;10.65;5.35;;;26.40;99.90;;;;;;5083768;28;20024;-63
2022/06/23 08:35:40;;;;;;;7.40;3.20;;;26.40;99.90;;;;;;5082844;28;20031;-67
2022/06/23 08:38:22;;;;;;;8.23;3.67;;;26.30;99.90;;;;;;5080200;28;20020;-67
2022/06/23 08:40:53;;;;;;;8.48;3.20;;;26.40;99.90;;;;;;5077718;28;20104;-67
2022/06/23 08:43:37;;;;;;;8.65;3.50;;;26.50;99.90;;;;;;5085824;28;20016;-67
2022/06/23 08:46:13;;;;;;;12.57;3.65;;;26.60;99.90;;;;;;5088970;28;20024;-67
2022/06/23 08:48:57;;;;;;;11.75;3.75;;;26.70;99.90;;;;;;5086457;28;20052;-67
2022/06/23 08:51:47;;;;;;;6.55;3.45;;;;;;;;;;5091475;28;20039;-67
2022/06/23 08:54:26;;;;;;;9.73;3.80;;;;;;;;;;5083220;28;20138;-66
2022/06/23 08:57:05;;;;;;;19.77;12.80;;;;;;;;;;5097701;28;20448;-67
2022/06/23 08:59:37;;;;;;;8.23;4.15;;;;;;;;;;5076422;28;20152;-66
2022/06/23 09:02:07;;;;;;;11.45;4.25;;;27.10;99.90;;;;;;5086528;28;20156;-67
2022/06/23 09:04:50;;;;;;;11.45;3.63;;;27.10;99.90;;;;;;5085205;28;20500;-67
2022/06/23 09:07:42;;;;;;;6.68;3.67;;;27.20;99.90;;;;;;5085131;28;20028;-66
2022/06/23 09:10:28;;;;;;;8.95;4.07;;;27.20;99.90;;;;;;5083436;28;20479;-67
2022/06/23 09:13:38;;;;;;;8.02;3.88;;;27.20;99.90;;;;;;5088791;28;20044;-66
2022/06/23 09:16:03;;;;;;;7.05;3.90;;;27.40;99.90;;;;;;5078677;28;20029;-67
2022/06/23 09:18:59;;;;;;;8.02;3.80;;;27.40;99.90;;;;;;5084683;28;20017;-67
2022/06/23 09:21:39;;;;;;;6.65;3.75;;;27.40;99.90;;;;;;5084423;28;20029;-67
2022/06/23 09:24:44;;;;;;;12.80;6.47;;;27.50;99.90;;;;;;5080077;28;20031;-67
2022/06/23 09:27:09;;;;;;;10.68;4.25;;;27.70;99.90;;;;;;5089476;28;20015;-67
2022/06/23 09:30:20;;;;;;;11.23;4.00;;;27.70;99.90;;;;;;5080180;28;20081;-67
2022/06/23 09:33:02;;;;;;;9.13;4.13;;;27.70;99.90;;;;;;5064576;28;20111;-67
2022/06/23 09:35:47;;;;;;;7.43;4.13;;;27.80;99.90;;;;;;5077093;28;20060;-67
2022/06/23 09:38:42;;;;;;;9.30;3.72;;;27.90;99.90;;;;;;5085386;28;20387;-66
2022/06/23 09:41:07;;;;;;;8.27;4.00;;;28.00;99.90;;;;;;5087365;28;20079;-66
2022/06/23 09:43:54;;;;;;;6.65;3.75;;;28.00;99.90;;;;;;5081740;28;20040;-66
2022/06/23 09:46:39;;;;;;;8.70;3.80;;;28.00;99.90;;;;;;5071009;28;20021;-67
2022/06/23 09:49:52;;;;;;;5.88;3.67;;;28.10;99.90;;;;;;5079543;28;20360;-66
2022/06/23 09:52:35;;;;;;;7.40;3.80;;;28.20;99.90;;;;;;5042598;28;20021;-66
2022/06/23 09:55:15;;;;;;;11.80;3.65;;;28.20;99.90;;;;;;5043918;28;20100;-66
2022/06/23 09:57:53;;;;;;;11.43;4.32;;;28.20;99.90;;;;;;5067363;28;20063;-67
2022/06/23 10:00:23;;;;;;;5.93;3.75;;;28.30;99.90;;;;;;5083989;28;20066;-67
2022/06/23 10:03:06;;;;;;;10.15;3.63;;;28.30;99.90;;;;;;5086457;28;20040;-66
2022/06/23 10:05:40;;;;;;;8.25;3.90;;;28.40;99.90;;;;;;5089203;28;20024;-66
2022/06/23 10:08:28;;;;;;;5.90;3.50;;;28.50;99.90;;;;;;5080132;28;20016;-66
2022/06/23 10:11:05;;;;;;;9.98;3.90;;;28.50;99.90;;;;;;5074791;28;20042;-67
2022/06/23 10:14:16;;;;;;;5.40;3.75;;;28.40;99.90;;;;;;5078935;28;20021;-66
2022/06/23 10:16:50;;;;;;;10.68;3.90;;;28.50;99.90;;;;;;5074762;28;20041;-67
2022/06/23 10:19:30;;;;;;;9.23;3.83;;;28.60;99.90;;;;;;5075459;28;20024;-66
2022/06/23 10:22:08;;;;;;;9.48;3.67;;;28.60;99.90;;;;;;5081335;28;20098;-67
2022/06/23 10:24:55;;;;;;;6.65;3.70;;;28.70;99.90;;;;;;5093990;27;20031;-67
2022/06/23 10:27:27;;;;;;;7.68;4.00;;;28.70;99.90;;;;;;5080505;28;20426;-67
2022/06/23 10:29:55;;;;;;;10.15;4.35;;;28.80;99.90;;;;;;5080697;28;20036;-67
2022/06/23 10:32:45;;;;;;;7.55;4.00;;;28.80;99.90;;;;;;5081829;28;20109;-67
2022/06/23 10:35:44;;;;;;;7.05;3.50;;;28.70;99.90;;;;;;5089193;28;20020;-66
2022/06/23 10:38:25;;;;;;;9.20;4.05;;;28.90;99.90;;;;;;5082861;28;20034;-65
2022/06/23 10:41:09;;;;;;;6.43;3.88;;;28.90;99.90;;;;;;5086823;28;20107;-67
2022/06/23 10:43:44;;;;;;;7.53;3.83;;;28.90;99.90;;;;;;5084923;28;20024;-66
2022/06/23 10:46:21;;;;;;;7.18;3.63;;;28.90;99.90;;;;;;5078783;28;20104;-66
2022/06/23 10:49:24;;;;;;;10.88;4.13;;;29.00;99.90;;;;;;5086770;28;20024;-66
2022/06/23 10:52:08;;;;;;;7.13;3.77;;;29.00;99.90;;;;;;5076175;28;20435;-67
2022/06/23 10:54:45;;;;;;;5.82;3.95;;;29.00;99.90;;;;;;5087827;28;20589;-67
2022/06/23 10:57:34;;;;;;;8.30;3.90;;;29.10;99.90;;;;;;5081586;28;20063;-66
2022/06/23 11:00:05;;;;;;;8.15;3.90;;;29.20;99.90;;;;;;5083659;28;20101;-67
2022/06/23 11:02:43;;;;;;;8.10;3.60;;;29.10;99.90;;;;;;5085171;28;20036;-66
2022/06/23 11:05:40;;;;;;;7.30;3.65;;;28.90;99.90;;;;;;5080565;28;20077;-66
2022/06/23 11:08:37;;;;;;;9.35;3.95;;;28.90;99.90;;;;;;5083799;28;20032;-66
2022/06/23 11:11:28;;;;;;;6.82;3.40;;;29.10;99.90;;;;;;5079224;28;20077;-66
2022/06/23 11:14:18;;;;;;;7.65;3.22;;;29.20;99.90;;;;;;5077614;28;20473;-66
2022/06/23 11:17:06;;;;;;;6.50;3.50;;;29.30;99.90;;;;;;5077174;28;20111;-66
2022/06/23 11:19:48;;;;;;;8.40;3.67;;;29.60;99.90;;;;;;5086378;28;20389;-66
2022/06/23 11:22:30;;;;;;;7.03;3.50;;;29.50;99.90;;;;;;5075278;28;20017;-67
2022/06/23 11:25:13;;;;;;;8.05;3.67;;;29.60;99.90;;;;;;5076052;28;20496;-66
2022/06/23 11:27:58;;;;;;;;;;;29.50;99.90;;;;;;5088683;28;20161;-66
2022/06/23 11:30:45;;;;;;;9.35;3.85;;;29.60;99.90;;;;;;5089199;28;20295;-66
2022/06/23 11:33:26;;;;;;;8.65;3.70;;;29.60;99.90;;;;;;5083091;28;20026;-67
2022/06/23 11:36:14;;;;;;;6.72;3.30;;;29.70;99.90;;;;;;5075883;28;20028;-66
2022/06/23 11:38:53;;;;;;;7.05;3.20;;;29.80;99.90;;;;;;5089897;28;20024;-66
2022/06/23 11:41:30;;;;;;;6.28;3.45;;;29.80;99.90;;;;;;5087448;28;20024;-66
2022/06/23 11:44:04;;;;;;;8.93;3.63;;;29.80;99.90;;;;;;5079859;28;20021;-66
2022/06/23 11:46:36;;;;;;;8.05;3.40;;;29.70;99.90;;;;;;5090737;28;20035;-66
2022/06/23 11:49:24;;;;;;;9.77;3.53;;;29.60;99.90;;;;;;5082498;28;20123;-65
2022/06/23 11:52:17;;;;;;;7.68;3.30;;;29.70;99.90;;;;;;5086425;28;20028;-66
2022/06/23 11:55:12;;;;;;;10.10;3.40;;;29.70;99.90;;;;;;5082349;28;20564;-66
2022/06/23 11:57:54;;;;;;;6.75;3.08;;;29.60;99.90;;;;;;5072709;28;20027;-65
2022/06/23 12:00:31;;;;;;;10.40;3.50;;;29.70;99.90;;;;;;5074423;28;20383;-65
2022/06/23 12:03:16;;;;;;;7.57;3.38;;;29.70;99.90;;;;;;5086959;28;20096;-65
2022/06/23 12:06:22;;;;;;;8.02;3.25;;;29.70;99.90;;;;;;5075937;28;20119;-65
2022/06/23 12:09:00;;;;;;;10.25;3.50;;;29.70;99.90;;;;;;5058726;28;20111;-65
2022/06/23 12:11:26;;;;;;;7.30;3.25;;;29.60;99.90;;;;;;5082152;28;20070;-65
2022/06/23 12:13:53;;;;;;;8.25;3.40;;;29.60;99.90;;;;;;5074850;28;20032;-65
2022/06/23 12:16:19;;;;;;;6.32;3.40;;;29.70;99.90;;;;;;5076857;28;20024;-65
2022/06/23 12:18:57;;;;;;;7.90;3.55;;;29.70;99.90;;;;;;5081685;28;20024;-65
2022/06/23 12:21:33;;;;;;;8.00;3.60;;;29.80;99.90;;;;;;5083443;28;20506;-65
2022/06/23 12:24:07;;;;;;;9.15;3.28;;;29.90;99.90;;;;;;5083446;28;20024;-66
2022/06/23 12:27:06;;;;;;;12.05;3.45;;;29.70;99.90;;;;;;5082441;28;20024;-66
2022/06/23 12:29:50;;;;;;;9.30;3.25;;;29.70;99.90;;;;;;5067742;28;20541;-66
2022/06/23 12:32:24;;;;;;;8.05;3.17;;;29.70;99.90;;;;;;5075788;28;20024;-66
2022/06/23 12:34:52;;;;;;;12.48;5.38;;;29.80;99.90;;;;;;5072513;28;20428;-65
2022/06/23 12:37:37;;;;;;;7.93;3.10;;;29.70;99.90;;;;;;5076499;28;20032;-65
2022/06/23 12:40:45;;;;;;;10.60;3.03;;;29.90;99.90;;;;;;5078310;28;20032;-65
2022/06/23 12:43:27;;;;;;;8.93;3.00;;;29.90;99.90;;;;;;5078461;28;20016;-65
2022/06/23 12:46:06;;;;;;;8.05;2.85;;;29.90;99.90;;;;;;5077546;28;20016;-65
2022/06/23 12:49:04;;;;;;;8.80;2.90;;;29.90;99.90;;;;;;5077530;28;20607;-65
2022/06/23 12:51:58;;;;;;;9.77;3.20;;;29.90;99.90;;;;;;5071777;28;20115;-65
2022/06/23 12:54:36;;;;;;;7.30;2.90;;;29.80;99.90;;;;;;5081172;28;20023;-65
2022/06/23 12:57:40;;;;;;;10.93;2.88;;;29.90;99.90;;;;;;5079034;28;20027;-65
2022/06/23 13:00:09;;;;;;;6.82;3.30;;;29.90;99.90;;;;;;5079613;28;20065;-65
2022/06/23 13:02:43;;;;;;;8.55;3.40;;;29.90;99.90;;;;;;5078319;28;20088;-65
2022/06/23 13:05:26;;;;;;;10.93;3.60;;;29.90;99.90;;;;;;5079985;28;20020;-65
2022/06/23 13:07:57;;;;;;;8.57;3.30;;;29.90;99.90;;;;;;5074519;28;20029;-65
2022/06/23 13:10:44;;;;;;;7.85;2.97;;;29.90;99.90;;;;;;5075197;28;20029;-65
2022/06/23 13:13:20;;;;;;;12.02;3.15;;;;;;;;;;5086823;28;20077;-65
2022/06/23 13:15:54;;;;;;;7.93;3.35;;;30.10;99.90;;;;;;5079216;28;20107;-65
2022/06/23 13:18:40;;;;;;;8.82;3.03;;;30.10;99.90;;;;;;5075786;28;20277;-65
2022/06/23 13:21:16;;;;;;;8.95;3.08;;;30.10;99.90;;;;;;5072200;28;20028;-65
2022/06/23 13:23:52;;;;;;;8.88;3.28;;;29.90;99.90;;;;;;5077735;28;20016;-66
2022/06/23 13:26:23;;;;;;;10.80;3.20;;;29.90;99.90;;;;;;5081842;28;20035;-66
2022/06/23 13:29:15;;;;;;;7.97;3.15;;;29.90;99.90;;;;;;5080290;28;20068;-66
2022/06/23 13:31:46;;;;;;;8.90;3.28;;;29.80;99.90;;;;;;5080857;28;20063;-65
2022/06/23 13:34:34;;;;;;;11.48;3.30;;;30.00;99.90;;;;;;5075960;28;20060;-65
2022/06/23 13:37:12;;;;;;;7.40;3.33;;;30.00;99.90;;;;;;5080717;28;20028;-65
2022/06/23 13:39:45;;;;;;;9.77;3.92;;;30.00;99.90;;;;;;5084527;28;20335;-65
2022/06/23 13:42:17;;;;;;;8.25;3.38;;;30.10;99.90;;;;;;5090483;28;20027;-65
2022/06/23 13:44:56;;;;;;;10.10;3.70;;;30.20;99.90;;;;;;5087680;28;20032;-65
2022/06/23 13:47:24;;;;;;;5.10;3.70;;;30.40;99.90;;;;;;5085054;28;20035;-66
2022/06/23 13:50:17;;;;;;;7.38;3.58;;;30.30;99.90;;;;;;5085388;28;20104;-65
2022/06/23 13:53:03;;;;;;;;;;;30.10;99.90;;;;;;5069431;28;20043;-65
2022/06/23 13:55:53;;;;;;;11.80;3.63;;;30.00;99.90;;;;;;5079640;28;20381;-66
2022/06/23 13:58:39;;;;;;;9.68;4.00;;;29.70;99.90;;;;;;5082578;28;20012;-65
2022/06/23 14:01:14;;;;;;;10.13;3.80;;;29.60;99.90;;;;;;5082753;28;20016;-65
2022/06/23 14:03:55;;;;;;;10.20;3.70;;;29.70;99.90;;;;;;5085554;28;20065;-66
2022/06/23 14:06:38;;;;;;;7.13;4.00;;;29.80;99.90;;;;;;5078266;28;20103;-65